sensor_id;sensor_type;location;lat;lon;timestamp;pressure;altitude;pressure_sealevel;temperature;humidity
69982;BME280;57319;56.274;43.980;2023-12-20T05:29:59;97769.78;;;0.13;100.00
69982;BME280;57319;56.274;43.980;2023-12-20T05:32:24;97763.88;;;0.22;100.00
69982;BME280;57319;56.274;43.980;2023-12-20T05:34:50;97753.69;;;0.31;100.00
69982;BME280;57319;56.274;43.980;2023-12-20T05:37:16;97760.44;;;0.34;100.00
69982;BME280;57319;56.274;43.980;2023-12-20T05:39:41;97770.56;;;0.39;100.00
69982;BME280;57319;56.274;43.980;2023-12-20T05:42:07;97766.31;;;0.42;100.00
69982;BME280;57319;56.274;43.980;2023-12-20T05:44:33;97769.66;;;0.49;100.00
69982;BME280;57319;56.274;43.980;2023-12-20T05:46:58;97773.91;;;0.48;100.00
69982;BME280;57319;56.274;43.980;2023-12-20T05:49:24;97780.63;;;0.46;100.00
69982;BME280;57319;56.274;43.980;2023-12-20T05:51:49;97778.97;;;0.42;100.00
69982;BME280;57319;56.274;43.980;2023-12-20T05:54:16;97779.75;;;0.58;100.00
69982;BME280;57319;56.274;43.980;2023-12-20T05:56:42;97778.88;;;0.65;100.00
69982;BME280;57319;56.274;43.980;2023-12-20T05:59:08;97780.53;;;0.76;100.00
69982;BME280;57319;56.274;43.980;2023-12-20T06:01:33;97776.28;;;0.78;100.00
69982;BME280;57319;56.274;43.980;2023-12-20T06:03:59;97772.06;;;0.77;100.00
69982;BME280;57319;56.274;43.980;2023-12-20T06:06:25;97765.25;;;0.85;100.00
69982;BME280;57319;56.274;43.980;2023-12-20T06:08:50;97776.22;;;0.89;100.00
69982;BME280;57319;56.274;43.980;2023-12-20T06:11:16;97779.63;;;0.84;100.00
69982;BME280;57319;56.274;43.980;2023-12-20T06:13:42;97777.19;;;0.69;100.00
69982;BME280;57319;56.274;43.980;2023-12-20T06:16:07;97786.38;;;0.86;100.00
69982;BME280;57319;56.274;43.980;2023-12-20T06:18:33;97788.09;;;0.82;100.00
69982;BME280;57319;56.274;43.980;2023-12-20T06:20:59;97794.84;;;0.83;100.00
69982;BME280;57319;56.274;43.980;2023-12-20T06:23:24;97802.44;;;0.84;100.00
69982;BME280;57319;56.274;43.980;2023-12-20T06:25:50;97794.88;;;0.72;100.00
69982;BME280;57319;56.274;43.980;2023-12-20T06:28:16;97800.00;;;0.60;100.00
69982;BME280;57319;56.274;43.980;2023-12-20T06:30:41;97802.44;;;0.81;100.00
69982;BME280;57319;56.274;43.980;2023-12-20T06:33:07;97809.16;;;0.89;100.00
69982;BME280;57319;56.274;43.980;2023-12-20T06:35:32;97807.47;;;0.88;100.00
69982;BME280;57319;56.274;43.980;2023-12-20T06:37:58;97809.22;;;0.82;100.00
69982;BME280;57319;56.274;43.980;2023-12-20T06:40:24;97808.41;;;0.70;100.00
69982;BME280;57319;56.274;43.980;2023-12-20T06:42:49;97809.22;;;0.76;100.00
69982;BME280;57319;56.274;43.980;2023-12-20T06:45:15;97804.13;;;0.84;100.00
69982;BME280;57319;56.274;43.980;2023-12-20T06:47:41;97815.09;;;0.84;100.00
69982;BME280;57319;56.274;43.980;2023-12-20T06:50:06;97820.19;;;0.78;100.00
69982;BME280;57319;56.274;43.980;2023-12-20T06:52:34;97819.31;;;0.87;100.00
69982;BME280;57319;56.274;43.980;2023-12-20T06:55:01;97821.00;;;0.88;100.00
69982;BME280;57319;56.274;43.980;2023-12-20T06:57:27;97820.13;;;0.88;100.00
69982;BME280;57319;56.274;43.980;2023-12-20T06:59:53;97810.00;;;0.91;100.00
69982;BME280;57319;56.274;43.980;2023-12-20T07:02:19;97812.56;;;0.83;100.00
69982;BME280;57319;56.274;43.980;2023-12-20T07:04:45;97817.66;;;0.75;100.00
69982;BME280;57319;56.274;43.980;2023-12-20T07:07:11;97810.88;;;0.88;100.00
69982;BME280;57319;56.274;43.980;2023-12-20T07:09:36;97808.34;;;0.80;100.00
69982;BME280;57319;56.274;43.980;2023-12-20T07:12:04;97816.78;;;0.87;100.00
69982;BME280;57319;56.274;43.980;2023-12-20T07:14:30;97812.50;;;0.95;100.00
69982;BME280;57319;56.274;43.980;2023-12-20T07:16:55;97809.13;;;0.98;100.00
69982;BME280;57319;56.274;43.980;2023-12-20T07:19:21;97811.66;;;0.96;100.00
69982;BME280;57319;56.274;43.980;2023-12-20T07:21:46;97814.25;;;0.86;100.00
69982;BME280;57319;56.274;43.980;2023-12-20T07:24:12;97824.38;;;0.87;100.00
69982;BME280;57319;56.274;43.980;2023-12-20T07:26:38;97816.75;;;0.89;100.00
69982;BME280;57319;56.274;43.980;2023-12-20T07:29:04;97815.00;;;1.00;100.00
69982;BME280;57319;56.274;43.980;2023-12-20T07:31:30;97820.06;;;1.05;100.00
69982;BME280;57319;56.274;43.980;2023-12-20T07:33:56;97816.66;;;1.04;100.00
69982;BME280;57319;56.274;43.980;2023-12-20T07:36:21;97819.22;;;1.04;100.00
69982;BME280;57319;56.274;43.980;2023-12-20T07:38:47;97820.03;;;1.09;100.00
69982;BME280;57319;56.274;43.980;2023-12-20T07:41:13;97816.69;;;1.01;100.00
69982;BME280;57319;56.274;43.980;2023-12-20T07:43:38;97820.06;;;1.00;100.00
69982;BME280;57319;56.274;43.980;2023-12-20T07:46:07;97825.16;;;0.98;100.00
69982;BME280;57319;56.274;43.980;2023-12-20T07:48:37;97820.03;;;1.09;100.00
69982;BME280;57319;56.274;43.980;2023-12-20T07:51:06;97824.19;;;1.18;100.00
69982;BME280;57319;56.274;43.980;2023-12-20T07:53:34;97809.84;;;1.14;100.00
69982;BME280;57319;56.274;43.980;2023-12-20T07:56:00;97817.47;;;1.12;100.00
69982;BME280;57319;56.274;43.980;2023-12-20T07:58:26;97818.28;;;1.21;100.00
69982;BME280;57319;56.274;43.980;2023-12-20T08:00:52;97830.91;;;1.27;100.00
69982;BME280;57319;56.274;43.980;2023-12-20T08:03:17;97837.66;;;1.25;100.00
69982;BME280;57319;56.274;43.980;2023-12-20T08:05:43;97838.50;;;1.28;100.00
69982;BME280;57319;56.274;43.980;2023-12-20T08:08:08;97830.06;;;1.28;100.00
69982;BME280;57319;56.274;43.980;2023-12-20T08:10:35;97832.59;;;1.28;100.00
69982;BME280;57319;56.274;43.980;2023-12-20T08:13:00;97843.59;;;1.22;100.00
69982;BME280;57319;56.274;43.980;2023-12-20T08:15:26;97846.13;;;1.27;100.00
69982;BME280;57319;56.274;43.980;2023-12-20T08:17:52;97836.88;;;1.20;100.00
69982;BME280;57319;56.274;43.980;2023-12-20T08:20:17;97841.00;;;1.31;100.00
69982;BME280;57319;56.274;43.980;2023-12-20T08:22:43;97846.13;;;1.27;100.00
69982;BME280;57319;56.274;43.980;2023-12-20T08:25:09;97852.81;;;1.35;100.00
69982;BME280;57319;56.274;43.980;2023-12-20T08:27:39;97857.88;;;1.40;100.00
69982;BME280;57319;56.274;43.980;2023-12-20T08:30:06;97858.72;;;1.39;100.00
69982;BME280;57319;56.274;43.980;2023-12-20T08:32:31;97848.69;;;1.25;100.00
69982;BME280;57319;56.274;43.980;2023-12-20T08:34:57;97846.94;;;1.29;100.00
69982;BME280;57319;56.274;43.980;2023-12-20T08:37:24;97852.81;;;1.35;100.00
69982;BME280;57319;56.274;43.980;2023-12-20T08:39:49;97857.94;;;1.29;100.00
69982;BME280;57319;56.274;43.980;2023-12-20T08:42:15;97850.28;;;1.37;100.00
69982;BME280;57319;56.274;43.980;2023-12-20T08:44:40;97856.16;;;1.44;100.00
69982;BME280;57319;56.274;43.980;2023-12-20T08:47:06;97846.88;;;1.44;100.00
69982;BME280;57319;56.274;43.980;2023-12-20T08:49:32;97852.91;;;1.20;100.00
69982;BME280;57319;56.274;43.980;2023-12-20T08:51:58;97850.28;;;1.35;100.00
69982;BME280;57319;56.274;43.980;2023-12-20T08:54:24;97850.25;;;1.43;100.00
69982;BME280;57319;56.274;43.980;2023-12-20T08:56:49;97840.22;;;1.25;100.00
69982;BME280;57319;56.274;43.980;2023-12-20T08:59:15;97847.75;;;1.40;100.00
69982;BME280;57319;56.274;43.980;2023-12-20T09:01:41;97855.31;;;1.43;100.00
69982;BME280;57319;56.274;43.980;2023-12-20T09:04:06;97845.16;;;1.46;100.00
69982;BME280;57319;56.274;43.980;2023-12-20T09:06:32;97834.94;;;1.56;100.00
69982;BME280;57319;56.274;43.980;2023-12-20T09:08:58;97846.06;;;1.38;100.00
69982;BME280;57319;56.274;43.980;2023-12-20T09:11:23;97832.53;;;1.40;100.00
69982;BME280;57319;56.274;43.980;2023-12-20T09:13:49;97850.13;;;1.60;100.00
69982;BME280;57319;56.274;43.980;2023-12-20T09:16:15;97852.72;;;1.51;100.00
69982;BME280;57319;56.274;43.980;2023-12-20T09:18:41;97846.69;;;1.66;100.00
69982;BME280;57319;56.274;43.980;2023-12-20T09:21:07;97844.16;;;1.71;100.00
69982;BME280;57319;56.274;43.980;2023-12-20T09:23:33;97854.28;;;1.71;100.00
69982;BME280;57319;56.274;43.980;2023-12-20T09:25:58;97846.75;;;1.60;100.00
69982;BME280;57319;56.274;43.980;2023-12-20T09:28:24;97840.72;;;1.72;100.00
69982;BME280;57319;56.274;43.980;2023-12-20T09:30:50;97853.41;;;1.76;100.00
69982;BME280;57319;56.274;43.980;2023-12-20T09:33:15;97850.09;;;1.66;100.00
69982;BME280;57319;56.274;43.980;2023-12-20T09:35:42;97852.59;;;1.69;100.00
69982;BME280;57319;56.274;43.980;2023-12-20T09:38:07;97858.44;;;1.81;100.00
69982;BME280;57319;56.274;43.980;2023-12-20T09:40:34;97862.69;;;1.74;100.00
69982;BME280;57319;56.274;43.980;2023-12-20T09:43:10;97861.22;;;1.44;100.00
69982;BME280;57319;56.274;43.980;2023-12-20T09:45:36;97852.66;;;1.65;100.00
69982;BME280;57319;56.274;43.980;2023-12-20T09:48:03;97855.09;;;1.74;100.00
69982;BME280;57319;56.274;43.980;2023-12-20T09:50:30;97861.03;;;1.70;100.00
69982;BME280;57319;56.274;43.980;2023-12-20T09:52:58;97854.34;;;1.61;100.00
69982;BME280;57319;56.274;43.980;2023-12-20T09:55:25;97855.91;;;1.79;100.00
69982;BME280;57319;56.274;43.980;2023-12-20T09:57:51;97857.50;;;1.91;100.00
69982;BME280;57319;56.274;43.980;2023-12-20T16:32:03;98122.41;;;1.21;100.00
69982;BME280;57319;56.274;43.980;2023-12-20T16:34:29;98123.28;;;1.20;100.00
69982;BME280;57319;56.274;43.980;2023-12-20T16:36:55;98113.13;;;1.24;100.00
69982;BME280;57319;56.274;43.980;2023-12-20T16:49:04;98135.09;;;1.19;100.00
69982;BME280;57319;56.274;43.980;2023-12-20T16:53:55;98140.16;;;1.28;100.00
69982;BME280;57319;56.274;43.980;2023-12-20T16:56:22;98149.44;;;1.34;100.00
69982;BME280;57319;56.274;43.980;2023-12-20T16:58:48;98152.81;;;1.39;100.00
69982;BME280;57319;56.274;43.980;2023-12-20T17:01:14;98154.50;;;1.40;100.00
69982;BME280;57319;56.274;43.980;2023-12-20T17:03:41;98160.41;;;1.39;100.00
69982;BME280;57319;56.274;43.980;2023-12-20T17:06:07;98158.72;;;1.27;100.00
69982;BME280;57319;56.274;43.980;2023-12-20T17:08:33;98168.88;;;1.37;100.00
69982;BME280;57319;56.274;43.980;2023-12-20T17:10:59;98166.34;;;1.27;100.00
69982;BME280;57319;56.274;43.980;2023-12-20T17:13:26;98175.66;;;1.11;100.00
69982;BME280;57319;56.274;43.980;2023-12-20T17:15:53;98168.03;;;1.27;100.00
69982;BME280;57319;56.274;43.980;2023-12-20T17:18:19;98173.94;;;1.27;100.00
69982;BME280;57319;56.274;43.980;2023-12-20T17:20:44;98175.63;;;1.34;100.00
69982;BME280;57319;56.274;43.980;2023-12-20T17:23:10;98178.19;;;1.38;100.00
69982;BME280;57319;56.274;43.980;2023-12-20T17:25:36;98179.84;;;1.39;100.00
69982;BME280;57319;56.274;43.980;2023-12-20T17:28:05;98179.00;;;1.37;100.00
69982;BME280;57319;56.274;43.980;2023-12-20T17:30:31;98173.13;;;1.24;100.00
69982;BME280;57319;56.274;43.980;2023-12-20T17:32:57;98176.50;;;1.33;100.00
69982;BME280;57319;56.274;43.980;2023-12-20T17:35:23;98175.66;;;1.11;100.00
69982;BME280;57319;56.274;43.980;2023-12-20T17:37:48;98172.25;;;1.20;100.00
69982;BME280;57319;56.274;43.980;2023-12-20T17:40:21;98184.09;;;1.10;100.00
69982;BME280;57319;56.274;43.980;2023-12-20T17:42:52;98192.53;;;1.00;100.00
69982;BME280;57319;56.274;43.980;2023-12-20T17:45:19;98174.81;;;1.17;100.00
69982;BME280;57319;56.274;43.980;2023-12-20T17:47:45;98181.53;;;1.16;100.00
69982;BME280;57319;56.274;43.980;2023-12-20T17:50:10;98179.88;;;1.17;100.00
69982;BME280;57319;56.274;43.980;2023-12-20T17:52:39;98179.03;;;1.24;100.00
69982;BME280;57319;56.274;43.980;2023-12-20T17:55:07;98186.63;;;1.27;100.00
69982;BME280;57319;56.274;43.980;2023-12-20T17:57:33;98188.31;;;1.27;100.00
69982;BME280;57319;56.274;43.980;2023-12-20T18:00:12;98189.16;;;1.26;100.00
69982;BME280;57319;56.274;43.980;2023-12-20T18:02:41;98190.00;;;1.26;100.00
69982;BME280;57319;56.274;43.980;2023-12-20T18:05:10;98195.06;;;1.20;100.00
69982;BME280;57319;56.274;43.980;2023-12-20T18:08:31;98190.84;;;1.19;100.00
69982;BME280;57319;56.274;43.980;2023-12-20T18:10:57;98201.81;;;1.30;100.00
69982;BME280;57319;56.274;43.980;2023-12-20T18:13:25;98195.06;;;1.32;100.00
69982;BME280;57319;56.274;43.980;2023-12-20T18:15:51;98204.38;;;1.32;100.00
69982;BME280;57319;56.274;43.980;2023-12-20T18:18:21;98204.38;;;1.23;100.00
69982;BME280;57319;56.274;43.980;2023-12-20T18:20:49;98200.13;;;1.22;100.00
69982;BME280;57319;56.274;43.980;2023-12-20T18:23:14;98205.19;;;1.23;100.00
69982;BME280;57319;56.274;43.980;2023-12-20T18:25:40;98206.06;;;1.28;100.00
69982;BME280;57319;56.274;43.980;2023-12-20T18:28:06;98220.41;;;1.22;100.00
69982;BME280;57319;56.274;43.980;2023-12-20T18:30:34;98224.66;;;1.26;100.00
69982;BME280;57319;56.274;43.980;2023-12-20T18:32:59;98228.88;;;1.16;100.00
69982;BME280;57319;56.274;43.980;2023-12-20T18:35:25;98235.63;;;1.09;100.00
69982;BME280;57319;56.274;43.980;2023-12-20T18:37:51;98233.94;;;1.13;100.00
69982;BME280;57319;56.274;43.980;2023-12-20T18:40:17;98242.34;;;1.06;100.00
69982;BME280;57319;56.274;43.980;2023-12-20T18:42:44;98248.28;;;1.08;100.00
69982;BME280;57319;56.274;43.980;2023-12-20T18:45:10;98252.53;;;1.20;100.00
69982;BME280;57319;56.274;43.980;2023-12-20T18:47:36;98260.97;;;1.15;100.00
69982;BME280;57319;56.274;43.980;2023-12-20T18:50:02;98253.38;;;1.22;100.00
69982;BME280;57319;56.274;43.980;2023-12-20T18:52:30;98253.38;;;1.15;100.00
69982;BME280;57319;56.274;43.980;2023-12-20T18:54:56;98257.59;;;1.21;100.00
69982;BME280;57319;56.274;43.980;2023-12-20T18:57:24;98258.44;;;1.20;100.00
69982;BME280;57319;56.274;43.980;2023-12-20T18:59:57;98252.53;;;1.23;100.00
69982;BME280;57319;56.274;43.980;2023-12-20T19:02:23;98249.13;;;1.04;100.00
69982;BME280;57319;56.274;43.980;2023-12-20T19:04:49;98258.44;;;1.08;100.00
69982;BME280;57319;56.274;43.980;2023-12-20T19:07:14;98255.88;;;1.00;100.00
69982;BME280;57319;56.274;43.980;2023-12-20T19:09:40;98255.06;;;1.09;100.00
69982;BME280;57319;56.274;43.980;2023-12-20T19:12:11;98259.25;;;1.10;100.00
69982;BME280;57319;56.274;43.980;2023-12-20T19:14:39;98255.03;;;1.16;100.00
69982;BME280;57319;56.274;43.980;2023-12-20T19:17:05;98255.06;;;1.10;100.00
69982;BME280;57319;56.274;43.980;2023-12-20T19:19:31;98256.72;;;1.10;100.00
69982;BME280;57319;56.274;43.980;2023-12-20T19:21:56;98251.63;;;0.94;100.00
69982;BME280;57319;56.274;43.980;2023-12-20T19:24:22;98248.28;;;1.03;100.00
69982;BME280;57319;56.274;43.980;2023-12-20T19:26:48;98243.22;;;1.08;100.00
69982;BME280;57319;56.274;43.980;2023-12-20T19:29:16;98239.00;;;1.11;100.00
69982;BME280;57319;56.274;43.980;2023-12-20T19:31:44;98247.44;;;1.12;100.00
69982;BME280;57319;56.274;43.980;2023-12-20T19:34:12;98249.97;;;1.15;100.00
69982;BME280;57319;56.274;43.980;2023-12-20T19:36:38;98252.50;;;1.16;100.00
69982;BME280;57319;56.274;43.980;2023-12-20T19:39:04;98248.31;;;1.17;100.00
69982;BME280;57319;56.274;43.980;2023-12-20T19:41:29;98252.50;;;1.13;100.00
69982;BME280;57319;56.274;43.980;2023-12-20T19:43:55;98255.06;;;1.20;100.00
69982;BME280;57319;56.274;43.980;2023-12-20T19:46:23;98258.44;;;1.17;100.00
69982;BME280;57319;56.274;43.980;2023-12-20T19:48:49;98261.81;;;1.11;100.00
69982;BME280;57319;56.274;43.980;2023-12-20T19:51:16;98260.13;;;1.12;100.00
69982;BME280;57319;56.274;43.980;2023-12-20T19:53:42;98261.81;;;1.13;100.00
69982;BME280;57319;56.274;43.980;2023-12-20T19:56:08;98262.66;;;1.13;100.00
69982;BME280;57319;56.274;43.980;2023-12-20T19:58:33;98264.34;;;1.04;100.00
69982;BME280;57319;56.274;43.980;2023-12-20T20:00:59;98277.00;;;1.02;100.00
69982;BME280;57319;56.274;43.980;2023-12-20T20:03:24;98274.47;;;1.02;100.00
69982;BME280;57319;56.274;43.980;2023-12-20T20:05:50;98266.00;;;0.91;100.00
69982;BME280;57319;56.274;43.980;2023-12-20T20:08:16;98270.25;;;0.96;100.00
69982;BME280;57319;56.274;43.980;2023-12-20T20:10:42;98272.78;;;1.01;100.00
69982;BME280;57319;56.274;43.980;2023-12-20T20:13:07;98272.75;;;0.93;100.00
69982;BME280;57319;56.274;43.980;2023-12-20T20:15:33;98278.66;;;0.97;100.00
69982;BME280;57319;56.274;43.980;2023-12-20T20:17:59;98293.88;;;0.92;100.00
69982;BME280;57319;56.274;43.980;2023-12-20T20:20:24;98287.13;;;1.00;100.00
69982;BME280;57319;56.274;43.980;2023-12-20T20:22:50;98286.28;;;0.94;100.00
69982;BME280;57319;56.274;43.980;2023-12-20T20:25:16;98279.50;;;0.91;100.00
69982;BME280;57319;56.274;43.980;2023-12-20T20:27:41;98290.41;;;0.68;100.00
69982;BME280;57319;56.274;43.980;2023-12-20T20:30:07;98287.06;;;0.83;100.00
69982;BME280;57319;56.274;43.980;2023-12-20T20:32:33;98285.41;;;0.93;100.00
69982;BME280;57319;56.274;43.980;2023-12-20T20:34:59;98282.91;;;0.98;100.00
69982;BME280;57319;56.274;43.980;2023-12-20T20:37:24;98288.00;;;1.07;100.00
69982;BME280;57319;56.274;43.980;2023-12-20T20:39:50;98282.06;;;1.10;100.00
69982;BME280;57319;56.274;43.980;2023-12-20T20:42:16;98286.31;;;1.11;100.00
69982;BME280;57319;56.274;43.980;2023-12-20T20:44:41;98280.41;;;1.13;100.00
69982;BME280;57319;56.274;43.980;2023-12-20T20:47:07;98271.09;;;1.06;100.00
69982;BME280;57319;56.274;43.980;2023-12-20T20:49:33;98266.88;;;1.07;100.00
69982;BME280;57319;56.274;43.980;2023-12-20T20:51:59;98264.34;;;1.13;100.00
69982;BME280;57319;56.274;43.980;2023-12-20T20:54:24;98273.63;;;1.14;100.00
69982;BME280;57319;56.274;43.980;2023-12-20T20:56:50;98274.50;;;1.16;100.00
69982;BME280;57319;56.274;43.980;2023-12-20T20:59:17;98275.31;;;1.15;100.00
69982;BME280;57319;56.274;43.980;2023-12-20T21:01:44;98275.31;;;1.12;100.00
69982;BME280;57319;56.274;43.980;2023-12-20T21:04:09;98277.84;;;0.96;100.00
69982;BME280;57319;56.274;43.980;2023-12-20T21:06:35;98277.88;;;1.09;100.00
69982;BME280;57319;56.274;43.980;2023-12-20T21:09:01;98282.94;;;1.07;100.00
69982;BME280;57319;56.274;43.980;2023-12-20T21:11:27;98282.91;;;0.99;100.00
69982;BME280;57319;56.274;43.980;2023-12-20T21:13:52;98282.06;;;1.02;100.00
69982;BME280;57319;56.274;43.980;2023-12-20T21:16:18;98285.41;;;0.92;100.00
69982;BME280;57319;56.274;43.980;2023-12-20T21:18:44;98287.97;;;0.99;100.00
69982;BME280;57319;56.274;43.980;2023-12-20T21:21:11;98297.16;;;0.68;100.00
69982;BME280;57319;56.274;43.980;2023-12-20T21:23:37;98295.53;;;0.93;100.00
69982;BME280;57319;56.274;43.980;2023-12-20T21:26:04;98291.34;;;1.01;100.00
69982;BME280;57319;56.274;43.980;2023-12-20T21:28:32;98290.50;;;0.95;100.00
69982;BME280;57319;56.274;43.980;2023-12-20T21:30:58;98294.75;;;1.04;100.00
69982;BME280;57319;56.274;43.980;2023-12-20T21:33:24;98293.91;;;1.06;100.00
69982;BME280;57319;56.274;43.980;2023-12-20T21:35:50;98297.28;;;1.07;100.00
69982;BME280;57319;56.274;43.980;2023-12-20T21:38:16;98297.28;;;1.04;100.00
69982;BME280;57319;56.274;43.980;2023-12-20T21:40:41;98304.03;;;1.03;100.00
69982;BME280;57319;56.274;43.980;2023-12-20T21:43:07;98304.88;;;1.05;100.00
69982;BME280;57319;56.274;43.980;2023-12-20T21:45:32;98307.41;;;1.05;100.00
69982;BME280;57319;56.274;43.980;2023-12-20T21:47:58;98308.25;;;1.02;100.00
69982;BME280;57319;56.274;43.980;2023-12-20T21:50:24;98306.50;;;0.81;100.00
69982;BME280;57319;56.274;43.980;2023-12-20T21:52:49;98306.53;;;0.91;100.00
69982;BME280;57319;56.274;43.980;2023-12-20T21:55:15;98304.00;;;0.97;100.00
69982;BME280;57319;56.274;43.980;2023-12-20T21:57:41;98298.09;;;1.01;100.00
69982;BME280;57319;56.274;43.980;2023-12-20T22:00:07;98303.19;;;0.98;100.00
69982;BME280;57319;56.274;43.980;2023-12-20T22:02:34;98293.03;;;0.98;100.00
69982;BME280;57319;56.274;43.980;2023-12-20T22:05:00;98296.44;;;1.05;100.00
69982;BME280;57319;56.274;43.980;2023-12-20T22:07:26;98293.91;;;1.05;100.00
69982;BME280;57319;56.274;43.980;2023-12-20T22:09:52;98300.63;;;1.02;100.00
69982;BME280;57319;56.274;43.980;2023-12-20T22:12:17;98304.03;;;1.03;100.00
69982;BME280;57319;56.274;43.980;2023-12-20T22:14:43;98312.47;;;1.02;100.00
69982;BME280;57319;56.274;43.980;2023-12-20T22:17:09;98311.63;;;1.03;100.00
69982;BME280;57319;56.274;43.980;2023-12-20T22:19:35;98310.78;;;1.02;100.00
69982;BME280;57319;56.274;43.980;2023-12-20T22:22:01;98310.78;;;0.99;100.00
69982;BME280;57319;56.274;43.980;2023-12-20T22:24:27;98302.28;;;0.79;100.00
69982;BME280;57319;56.274;43.980;2023-12-20T22:26:52;98293.84;;;0.89;100.00
69982;BME280;57319;56.274;43.980;2023-12-20T22:29:20;98303.13;;;0.86;100.00
69982;BME280;57319;56.274;43.980;2023-12-20T22:31:48;98293.88;;;0.91;100.00
69982;BME280;57319;56.274;43.980;2023-12-20T22:34:14;98289.59;;;0.85;100.00
69982;BME280;57319;56.274;43.980;2023-12-20T22:36:39;98278.66;;;0.97;100.00
69982;BME280;57319;56.274;43.980;2023-12-20T22:39:05;98276.13;;;0.94;100.00
69982;BME280;57319;56.274;43.980;2023-12-20T22:41:31;98274.47;;;1.00;100.00
69982;BME280;57319;56.274;43.980;2023-12-20T22:43:57;98271.91;;;0.94;100.00
69982;BME280;57319;56.274;43.980;2023-12-20T22:46:22;98282.91;;;0.95;100.00
69982;BME280;57319;56.274;43.980;2023-12-20T22:48:48;98269.38;;;0.96;100.00
69982;BME280;57319;56.274;43.980;2023-12-20T22:51:14;98272.78;;;1.01;100.00
69982;BME280;57319;56.274;43.980;2023-12-20T22:53:40;98264.28;;;0.82;100.00
69982;BME280;57319;56.274;43.980;2023-12-20T22:56:06;98257.53;;;0.89;100.00
69982;BME280;57319;56.274;43.980;2023-12-20T22:58:31;98240.66;;;0.92;100.00
69982;BME280;57319;56.274;43.980;2023-12-20T23:00:57;98238.97;;;0.88;100.00
69982;BME280;57319;56.274;43.980;2023-12-20T23:03:22;98233.06;;;0.94;100.00
69982;BME280;57319;56.274;43.980;2023-12-20T23:05:51;98223.75;;;0.97;100.00
69982;BME280;57319;56.274;43.980;2023-12-20T23:08:16;98230.47;;;0.75;100.00
69982;BME280;57319;56.274;43.980;2023-12-20T23:10:42;98219.53;;;0.93;100.00
69982;BME280;57319;56.274;43.980;2023-12-20T23:13:07;98217.88;;;0.97;100.00
69982;BME280;57319;56.274;43.980;2023-12-20T23:15:33;98219.53;;;0.75;100.00
69982;BME280;57319;56.274;43.980;2023-12-20T23:17:59;98219.53;;;0.87;100.00
69982;BME280;57319;56.274;43.980;2023-12-20T23:20:25;98226.28;;;0.80;100.00
69982;BME280;57319;56.274;43.980;2023-12-20T23:22:51;98231.38;;;0.94;100.00
69982;BME280;57319;56.274;43.980;2023-12-20T23:25:17;98236.44;;;0.94;100.00
69982;BME280;57319;56.274;43.980;2023-12-20T23:27:42;98241.50;;;0.88;100.00
69982;BME280;57319;56.274;43.980;2023-12-20T23:30:11;98235.59;;;0.91;100.00
69982;BME280;57319;56.274;43.980;2023-12-20T23:32:37;98223.78;;;1.00;100.00
69982;BME280;57319;56.274;43.980;2023-12-20T23:35:03;98220.38;;;1.01;100.00
69982;BME280;57319;56.274;43.980;2023-12-20T23:37:29;98228.84;;;0.97;100.00
69982;BME280;57319;56.274;43.980;2023-12-20T23:39:54;98224.59;;;0.89;100.00
69982;BME280;57319;56.274;43.980;2023-12-20T23:42:20;98231.38;;;0.91;100.00
69982;BME280;57319;56.274;43.980;2023-12-20T23:44:46;98226.31;;;0.91;100.00
69982;BME280;57319;56.274;43.980;2023-12-20T23:47:12;98232.22;;;0.89;100.00
69982;BME280;57319;56.274;43.980;2023-12-20T23:49:37;98228.84;;;0.96;100.00
69982;BME280;57319;56.274;43.980;2023-12-20T23:52:03;98217.03;;;0.98;100.00
69982;BME280;57319;56.274;43.980;2023-12-20T23:54:29;98222.09;;;0.96;100.00
69982;BME280;57319;56.274;43.980;2023-12-20T23:56:54;98215.34;;;0.97;100.00
69982;BME280;57319;56.274;43.980;2023-12-20T23:59:20;98201.81;;;0.96;100.00
